Time;durP1;ratioP1;P1;durP2;ratioP2;P2;SDS_P1;SDS_P2;PMS_P1;PMS_P2;Temp;Humidity;BMP_temperature;BMP_pressure;BME280_temperature;BME280_humidity;BME280_pressure;Samples;Min_cycle;Max_cycle;Signal;HPM_P1;HPM_P2
2023/09/30 00:01:19;;;;;;;12.13;6.40;;;;;;;16.28;88.14;100596.78;10598270;28;20040;-92
2023/09/30 00:06:21;;;;;;;10.20;6.43;;;;;;;16.12;89.16;100592.81;10624344;28;20028;-91
2023/09/30 00:11:24;;;;;;;9.93;6.43;;;;;;;16.11;89.54;100599.50;10560910;28;20045;-91
2023/09/30 00:16:27;;;;;;;8.80;6.22;;;;;;;16.12;89.92;100592.81;10574916;28;20040;-91
2023/09/30 00:21:29;;;;;;;10.27;6.55;;;;;;;16.23;89.14;100583.91;10554247;28;20518;-91
2023/09/30 00:26:32;;;;;;;11.27;5.70;;;;;;;16.01;90.01;100583.19;10573965;28;20036;-91
2023/09/30 00:31:34;;;;;;;11.40;6.70;;;;;;;16.01;90.82;100583.19;10556207;28;20036;-90
2023/09/30 00:36:36;;;;;;;14.07;7.00;;;;;;;16.05;90.57;100568.38;10573780;28;20040;-92
2023/09/30 00:41:39;;;;;;;11.50;6.15;;;;;;;16.14;90.17;100560.09;10572091;28;20060;-91
2023/09/30 00:46:42;;;;;;;9.15;6.15;;;;;;;16.17;89.79;100551.16;10554043;28;20051;-90
2023/09/30 00:51:46;;;;;;;10.18;6.25;;;;;;;16.28;89.50;100547.75;10563633;28;20502;-93
2023/09/30 00:56:50;;;;;;;8.68;6.53;;;;;;;16.23;88.69;100544.34;10573595;28;20050;-91
2023/09/30 01:01:54;;;;;;;10.15;6.55;;;;;;;16.14;89.67;100552.63;10572071;28;20051;-91
2023/09/30 01:06:57;;;;;;;10.45;6.05;;;;;;;16.08;90.26;100539.22;10538042;28;20043;-90
2023/09/30 01:11:59;;;;;;;9.77;6.70;;;;;;;16.14;89.98;100521.34;10536749;28;20690;-92
2023/09/30 01:17:02;;;;;;;9.35;6.57;;;;;;;16.13;89.67;100520.50;10566884;28;20502;-91
2023/09/30 01:22:04;;;;;;;9.18;6.30;;;;;;;16.00;90.50;100509.59;10569367;28;20040;-92
2023/09/30 01:27:07;;;;;;;12.27;6.65;;;;;;;16.03;90.46;100484.84;10537666;28;20047;-91
2023/09/30 01:32:09;;;;;;;9.82;6.22;;;;;;;16.25;89.13;100492.22;10510525;28;20046;-91
2023/09/30 01:37:13;;;;;;;9.63;6.53;;;;;;;16.19;89.42;100482.44;10553321;28;20499;-92
2023/09/30 01:42:15;;;;;;;10.43;6.43;;;;;;;16.11;89.64;100492.34;10552122;28;20055;-91
2023/09/30 01:47:17;;;;;;;9.70;5.82;;;;;;;16.16;89.35;100478.38;10569721;28;20043;-90
2023/09/30 01:52:19;;;;;;;9.35;6.65;;;;;;;15.96;90.04;100460.38;10553416;28;20040;-90
2023/09/30 01:57:21;;;;;;;10.25;6.55;;;;;;;15.97;90.60;100453.75;10573325;28;20071;-90
2023/09/30 02:02:26;;;;;;;11.88;6.55;;;;;;;16.00;90.63;100457.00;10558444;28;20043;-90
2023/09/30 02:07:29;;;;;;;11.80;6.32;;;;;;;15.98;90.51;100443.50;10574989;28;20518;-89
2023/09/30 02:12:31;;;;;;;11.15;7.07;;;;;;;15.90;91.34;100442.31;10551754;28;20043;-90
2023/09/30 02:17:33;;;;;;;10.15;6.38;;;;;;;15.88;91.94;100432.72;10573005;28;20043;-89
2023/09/30 02:22:35;;;;;;;11.80;7.10;;;;;;;16.06;91.57;100439.91;10578095;28;20054;-89
2023/09/30 02:27:41;;;;;;;11.00;6.80;;;;;;;16.14;90.98;100433.59;10557735;28;20028;-90
2023/09/30 02:32:46;;;;;;;13.65;7.25;;;;;;;16.04;90.75;100433.88;10575127;28;20059;-90
2023/09/30 02:37:50;;;;;;;9.05;6.63;;;;;;;16.09;91.06;100421.84;10559866;28;20040;-89
2023/09/30 02:42:52;;;;;;;14.88;7.60;;;;;;;16.02;91.07;100408.50;10543196;28;20051;-89
2023/09/30 02:47:54;;;;;;;11.50;7.07;;;;;;;16.00;91.49;100408.00;10577413;28;20042;-90
2023/09/30 02:52:57;;;;;;;17.42;7.72;;;;;;;16.04;91.60;100402.63;10545617;28;20037;-89
2023/09/30 02:58:00;;;;;;;11.82;7.00;;;;;;;16.03;91.85;100403.75;10545339;28;20047;-90
2023/09/30 03:03:04;;;;;;;11.68;7.18;;;;;;;16.09;91.69;100394.97;10560043;28;20051;-90
2023/09/30 03:08:07;;;;;;;15.38;7.63;;;;;;;16.06;91.35;100392.84;10559248;28;20067;-91
2023/09/30 03:13:09;;;;;;;13.15;7.72;;;;;;;16.07;91.65;100391.72;10553099;28;20433;-89
2023/09/30 03:18:12;;;;;;;16.20;8.45;;;;;;;16.03;92.09;100392.69;10500681;28;20044;-90
2023/09/30 03:23:16;;;;;;;12.55;8.25;;;;;;;15.94;92.69;100382.41;10554774;28;20040;-91
2023/09/30 03:28:19;;;;;;;16.38;8.35;;;;;;;15.90;92.88;100380.63;10573430;28;20312;-91
2023/09/30 03:33:22;;;;;;;11.02;7.75;;;;;;;15.73;94.48;100370.34;10561531;28;20380;-91
2023/09/30 03:38:29;;;;;;;12.13;7.32;;;;;;;15.68;94.65;100363.00;10575462;28;20040;-90
2023/09/30 03:43:34;;;;;;;19.00;8.13;;;;;;;15.69;95.25;100355.53;10552805;28;20052;-90
2023/09/30 03:48:39;;;;;;;12.80;7.78;;;;;;;15.63;95.19;100337.47;10556783;28;20035;-91
2023/09/30 03:53:45;;;;;;;13.50;7.65;;;;;;;15.60;95.61;100333.38;10557426;28;20046;-91
2023/09/30 03:58:48;;;;;;;11.37;7.87;;;;;;;15.64;95.55;100325.25;10574512;28;20056;-91
2023/09/30 04:03:54;;;;;;;14.77;7.78;;;;;;;15.64;95.41;100317.78;10577165;28;20494;-90
2023/09/30 04:08:58;;;;;;;10.75;8.00;;;;;;;15.62;95.89;100327.53;10558373;28;20032;-91
2023/09/30 04:14:01;;;;;;;13.18;7.63;;;;;;;15.54;96.13;100322.75;10574286;28;20048;-91
2023/09/30 04:19:04;;;;;;;14.48;7.95;;;;;;;15.44;96.79;100320.28;10572045;28;20051;-92
2023/09/30 04:24:07;;;;;;;11.40;7.70;;;;;;;15.46;97.36;100321.63;10570058;28;20039;-92
2023/09/30 04:29:10;;;;;;;12.35;7.63;;;;;;;15.39;98.01;100316.53;10569413;28;20036;-90
2023/09/30 04:34:13;;;;;;;10.90;7.25;;;;;;;15.37;97.44;100302.22;10570674;28;20118;-91
2023/09/30 04:39:17;;;;;;;10.82;7.40;;;;;;;15.50;97.56;100310.72;10547045;28;20046;-91
2023/09/30 04:44:20;;;;;;;14.85;8.02;;;;;;;15.54;96.70;100295.91;10560871;28;20048;-90
2023/09/30 04:49:24;;;;;;;10.95;7.50;;;;;;;15.62;96.62;100292.41;10552002;28;20450;-91
2023/09/30 04:54:26;;;;;;;12.13;7.03;;;;;;;15.66;95.87;100284.25;10531253;28;20427;-91
2023/09/30 04:59:29;;;;;;;14.60;7.60;;;;;;;15.60;95.83;100271.69;10576389;28;20040;-91
2023/09/30 05:04:31;;;;;;;10.05;7.10;;;;;;;15.86;94.49;100261.47;10586395;28;20123;-91
2023/09/30 05:09:34;;;;;;;10.50;7.70;;;;;;;16.11;92.46;100251.53;10600759;28;20032;-90
2023/09/30 05:14:39;;;;;;;11.10;7.53;;;;;;;16.10;91.93;100258.19;10597566;28;20135;-90
2023/09/30 05:19:41;;;;;;;14.75;7.57;;;;;;;15.95;93.14;100259.50;10555004;28;20040;-90
2023/09/30 05:24:43;;;;;;;12.65;7.30;;;;;;;16.04;91.95;100247.63;10571600;28;20048;-90
2023/09/30 05:29:46;;;;;;;12.18;6.90;;;;;;;15.77;94.13;100238.53;10563890;28;20446;-91
2023/09/30 05:34:49;;;;;;;15.10;7.78;;;;;;;15.82;93.65;100224.53;10566742;28;20047;-91
2023/09/30 05:39:51;;;;;;;17.60;7.28;;;;;;;15.88;93.39;100219.66;10554250;28;20032;-91
2023/09/30 05:44:53;;;;;;;13.32;8.07;;;;;;;15.73;94.28;100212.66;10561252;28;20051;-92
2023/09/30 05:49:55;;;;;;;13.55;7.22;;;;;;;15.75;94.69;100218.66;10562806;28;20028;-90
2023/09/30 05:55:00;;;;;;;14.07;7.78;;;;;;;15.83;94.36;100220.63;10582809;28;20044;-90
2023/09/30 06:00:11;;;;;;;12.30;7.90;;;;;;;15.84;94.33;100229.75;10560921;28;20047;-91
2023/09/30 06:05:18;;;;;;;13.00;7.40;;;;;;;15.78;94.09;100211.66;10576874;28;20044;-89
2023/09/30 06:10:20;;;;;;;11.00;7.10;;;;;;;15.77;93.77;100210.84;10543595;28;20067;-91
2023/09/30 06:15:28;;;;;;;16.75;7.55;;;;;;;15.83;93.74;100192.97;10574951;28;20032;-91
2023/09/30 06:20:31;;;;;;;15.43;7.65;;;;;;;15.74;93.25;100183.03;10554670;28;20040;-91
2023/09/30 06:25:35;;;;;;;11.15;7.63;;;;;;;16.01;92.38;100182.69;10536131;28;20036;-92
2023/09/30 06:30:41;;;;;;;11.63;7.18;;;;;;;16.08;90.34;100176.63;10557252;28;20051;-91
2023/09/30 06:35:50;;;;;;;14.20;7.40;;;;;;;16.02;90.28;100175.19;10578158;28;20040;-92
2023/09/30 06:40:53;;;;;;;11.35;7.57;;;;;;;16.10;89.85;100160.50;10574433;28;20055;-91
2023/09/30 06:45:56;;;;;;;13.65;7.85;;;;;;;16.09;89.62;100164.41;10544484;28;20507;-91
2023/09/30 06:51:00;;;;;;;14.93;7.60;;;;;;;16.20;89.05;100157.41;10558658;28;20040;-91
2023/09/30 06:56:05;;;;;;;12.68;7.03;;;;;;;16.15;88.80;100144.56;10543784;28;20036;-92
2023/09/30 07:01:15;;;;;;;9.80;6.83;;;;;;;16.18;89.05;100137.53;10574800;28;20137;-91
2023/09/30 07:06:24;;;;;;;9.82;6.60;;;;;;;16.45;87.10;100128.78;10525892;28;20652;-90
2023/09/30 07:11:33;;;;;;;12.80;7.70;;;;;;;16.46;87.28;100127.63;10556608;28;20042;-91
2023/09/30 07:16:35;;;;;;;11.88;6.97;;;;;;;16.51;87.03;100124.69;10568671;28;20032;-91
2023/09/30 07:21:40;;;;;;;11.88;6.80;;;;;;;16.69;85.15;100119.09;10576022;28;20040;-91
2023/09/30 07:26:42;;;;;;;8.90;6.88;;;;;;;16.51;85.62;100127.47;10574901;28;20098;-91
2023/09/30 07:31:45;;;;;;;10.50;6.40;;;;;;;16.75;85.51;100114.97;10540501;28;20427;-92
2023/09/30 07:36:47;;;;;;;13.07;7.25;;;;;;;16.45;86.01;100111.34;10554275;28;20038;-92
2023/09/30 07:41:50;;;;;;;11.27;6.78;;;;;;;16.46;85.88;100088.88;10554335;28;20056;-93
2023/09/30 07:46:53;;;;;;;16.05;7.53;;;;;;;16.23;86.25;100087.53;10548981;28;20047;-91
2023/09/30 07:51:55;;;;;;;11.82;6.63;;;;;;;16.43;85.42;100078.47;10547165;28;20032;-91
2023/09/30 07:56:59;;;;;;;12.75;6.97;;;;;;;16.67;83.50;100071.53;10531122;28;20424;-91
2023/09/30 08:02:04;;;;;;;9.90;6.90;;;;;;;17.04;81.53;100067.84;10548073;28;20039;-90
2023/09/30 08:07:06;;;;;;;10.80;6.90;;;;;;;17.39;80.46;100070.31;10551891;28;20048;-92
2023/09/30 08:12:12;;;;;;;9.90;6.65;;;;;;;17.73;78.43;100070.00;10551308;28;20047;-92
2023/09/30 08:17:15;;;;;;;10.93;6.65;;;;;;;18.72;75.27;100062.53;10565995;28;20395;-91
2023/09/30 08:22:17;;;;;;;10.93;6.90;;;;;;;20.07;71.07;100063.63;10548112;28;20560;-91
2023/09/30 08:27:20;;;;;;;12.20;6.15;;;;;;;20.26;69.28;100043.38;10571531;28;20033;-91
2023/09/30 08:32:22;;;;;;;11.52;6.40;;;;;;;19.90;69.95;100039.72;10571202;28;20110;-94
2023/09/30 08:37:24;;;;;;;10.60;6.22;;;;;;;18.93;73.85;100033.44;10555176;28;20050;-88
2023/09/30 08:42:32;;;;;;;11.48;6.28;;;;;;;18.85;74.07;100028.81;10573734;28;20063;-87
2023/09/30 08:47:35;;;;;;;9.00;5.90;;;;;;;18.82;74.26;100015.63;10548479;28;20510;-90
2023/09/30 08:52:39;;;;;;;13.70;5.68;;;;;;;18.91;74.73;100002.38;10559311;28;20059;-85
2023/09/30 08:57:42;;;;;;;9.77;5.95;;;;;;;19.17;73.88;100006.69;10550043;28;20039;-86
2023/09/30 09:02:44;;;;;;;7.65;4.95;;;;;;;19.04;74.89;100002.34;10523678;28;20051;-86
2023/09/30 09:07:47;;;;;;;8.45;5.10;;;;;;;18.55;75.72;100000.47;10562092;28;20043;-86
2023/09/30 09:12:57;;;;;;;10.13;5.10;;;;;;;18.59;76.39;100000.59;10542983;28;20514;-87
2023/09/30 09:17:59;;;;;;;6.25;5.00;;;;;;;18.53;77.18;99985.31;10545132;28;20043;-87
2023/09/30 09:23:01;;;;;;;8.30;5.72;;;;;;;18.60;76.60;99969.69;10558373;28;20020;-88
2023/09/30 09:28:04;;;;;;;8.75;5.75;;;;;;;18.78;76.19;99970.25;10549208;28;20047;-88
2023/09/30 09:33:06;;;;;;;9.63;5.28;;;;;;;18.70;77.13;99976.72;10542792;28;20526;-85
2023/09/30 09:38:09;;;;;;;7.80;4.90;;;;;;;18.63;76.69;99962.63;10535388;28;20032;-88
2023/09/30 09:43:11;;;;;;;7.68;4.88;;;;;;;18.64;77.36;99959.50;10567688;28;20051;-87
2023/09/30 09:48:13;;;;;;;8.77;4.72;;;;;;;18.38;78.14;99959.06;10529253;28;20044;-87
2023/09/30 09:53:16;;;;;;;7.25;4.93;;;;;;;18.08;78.34;99961.31;10532805;28;20051;-88
2023/09/30 09:58:20;;;;;;;5.43;4.05;;;;;;;17.77;80.50;99965.47;10568548;28;20530;-88
2023/09/30 10:03:22;;;;;;;7.10;4.70;;;;;;;17.88;80.66;99956.69;10546311;28;20040;-86
2023/09/30 10:08:35;;;;;;;5.53;4.00;;;;;;;18.19;79.42;99956.88;10567127;28;20095;-87
2023/09/30 10:14:00;;;;;;;5.72;4.03;;;;;;;18.22;79.09;99959.00;10526397;28;20040;-86
2023/09/30 10:19:08;;;;;;;6.55;4.72;;;;;;;18.04;79.20;99952.84;10534835;28;20066;-88
2023/09/30 10:24:23;;;;;;;7.13;4.45;;;;;;;18.03;79.26;99953.19;10538194;28;20032;-85
2023/09/30 10:29:39;;;;;;;6.05;4.65;;;;;;;17.80;79.81;99957.59;10559259;28;20512;-85
2023/09/30 10:34:49;;;;;;;6.90;4.37;;;;;;;17.65;80.13;99940.44;10538128;28;20099;-82
2023/09/30 10:39:56;;;;;;;7.03;4.72;;;;;;;17.75;79.66;99945.56;10541659;28;21212;-90
2023/09/30 10:44:58;;;;;;;6.68;5.10;;;;;;;17.67;80.28;99943.69;10561565;28;20039;-92
2023/09/30 10:50:00;;;;;;;7.97;4.75;;;;;;;17.62;80.60;99934.78;10542725;28;20035;-92
2023/09/30 10:55:04;;;;;;;6.78;3.97;;;;;;;17.53;81.31;99932.13;10588846;28;20064;-88
2023/09/30 11:00:11;;;;;;;5.78;3.35;;;;;;;17.46;81.14;99949.31;10595081;28;20526;-87
2023/09/30 11:05:14;;;;;;;8.47;4.57;;;;;;;17.42;80.94;99937.28;10529244;28;20415;-88
2023/09/30 11:10:19;;;;;;;5.93;2.90;;;;;;;17.41;80.36;99940.41;10540172;28;20048;-90
2023/09/30 11:15:21;;;;;;;3.30;2.65;;;;;;;17.45;80.43;99936.59;10545101;28;20051;-90
2023/09/30 11:20:24;;;;;;;7.70;4.47;;;;;;;17.45;81.06;99936.59;10548800;28;20028;-89
2023/09/30 11:25:26;;;;;;;5.88;4.03;;;;;;;17.36;81.47;99930.38;10507706;28;20076;-90
2023/09/30 11:30:28;;;;;;;7.32;3.20;;;;;;;17.33;81.38;99931.03;10573280;28;20080;-95
2023/09/30 11:35:30;;;;;;;5.80;3.85;;;;;;;17.36;81.29;99929.56;10603146;28;20134;-93
2023/09/30 11:40:33;;;;;;;8.48;4.20;;;;;;;17.45;81.09;99928.28;10571199;28;20060;-89
2023/09/30 11:45:35;;;;;;;5.85;3.97;;;;;;;17.51;80.43;99925.28;10558072;28;20044;-91
2023/09/30 11:50:52;;;;;;;4.45;2.90;;;;;;;17.50;80.67;99927.25;10536022;28;20052;-90
2023/09/30 12:01:34;;;;;;;6.68;3.72;;;;;;;17.62;80.15;99924.50;10531734;23;20076;-90
2023/09/30 12:06:38;;;;;;;6.32;3.58;;;;;;;17.71;79.63;99922.47;10074311;29;20051;-93
2023/09/30 12:11:46;;;;;;;3.00;1.77;;;;;;;17.65;79.71;99914.66;10077221;29;20050;-94
2023/09/30 12:16:49;;;;;;;7.82;4.25;;;;;;;17.60;79.96;99917.66;10079272;29;20044;-88
2023/09/30 12:21:52;;;;;;;8.18;3.75;;;;;;;17.56;80.50;99916.75;10059146;29;20093;-91
2023/09/30 12:26:55;;;;;;;5.32;2.70;;;;;;;17.47;80.68;99914.88;10076986;29;20042;-94
2023/09/30 12:31:57;;;;;;;5.55;3.17;;;;;;;17.44;80.74;99912.00;10078284;29;20069;-94
2023/09/30 12:37:00;;;;;;;3.97;2.88;;;;;;;17.34;81.19;99916.00;10068664;29;20070;-91
2023/09/30 12:42:08;;;;;;;5.05;3.05;;;;;;;17.32;81.57;99925.81;10069090;29;20564;-89
2023/09/30 12:47:10;;;;;;;7.47;4.28;;;;;;;17.00;86.46;99947.69;10043391;29;20041;-89
2023/09/30 12:52:12;;;;;;;5.90;2.83;;;;;;;15.82;93.41;99961.72;10037303;29;20037;-87
2023/09/30 12:57:17;;;;;;;7.85;3.30;;;;;;;15.46;97.30;99967.69;10050729;29;20037;-91
2023/09/30 13:02:20;;;;;;;4.50;2.30;;;;;;;15.41;99.58;99959.53;10066457;29;20060;-88
2023/09/30 13:07:24;;;;;;;5.70;3.40;;;;;;;15.48;100.00;99962.63;10057231;29;20513;-91
2023/09/30 13:12:27;;;;;;;5.07;3.30;;;;;;;15.47;100.00;99963.78;10070775;29;20056;-90
2023/09/30 13:17:29;;;;;;;5.65;2.97;;;;;;;15.49;100.00;99955.16;10045496;29;20037;-89
2023/09/30 13:22:32;;;;;;;5.10;3.10;;;;;;;15.59;100.00;99943.72;10073596;29;20521;-91
2023/09/30 13:27:34;;;;;;;3.75;2.55;;;;;;;15.62;100.00;99948.63;10043744;29;20041;-92
2023/09/30 13:32:36;;;;;;;5.15;2.70;;;;;;;15.69;99.35;99948.91;10048443;29;20052;-89
2023/09/30 13:37:39;;;;;;;4.55;2.70;;;;;;;15.65;97.74;99948.78;10057016;29;20052;-94
2023/09/30 13:42:41;;;;;;;4.28;2.63;;;;;;;15.82;97.14;99942.34;10088480;29;20060;-86
2023/09/30 13:47:58;;;;;;;5.47;2.88;;;;;;;15.82;95.33;99936.81;10101703;29;20109;-94
2023/09/30 13:59:48;;;;;;;4.90;3.08;;;;;;;15.92;94.98;99927.31;10147077;29;20559;-93
2023/09/30 14:05:22;;;;;;;4.38;2.78;;;;;;;15.85;94.94;99932.56;10112279;29;20045;-95
2023/09/30 14:10:36;;;;;;;8.25;5.40;;;;;;;15.70;96.18;99931.16;10097104;29;20125;-95
2023/09/30 14:16:46;;;;;;;8.60;4.28;;;;;;;15.62;95.87;99930.09;10108488;29;20121;-95
2023/09/30 14:22:32;;;;;;;5.38;2.70;;;;;;;15.56;95.98;99936.06;10119587;29;20148;-95
2023/09/30 14:28:13;;;;;;;7.38;2.92;;;;;;;15.50;95.75;99937.41;10110831;29;20041;-92
2023/09/30 14:34:15;;;;;;;5.75;2.20;;;;;;;15.45;93.71;99937.59;10116088;29;20030;-96
2023/09/30 14:40:15;;;;;;;4.90;1.73;;;;;;;15.39;91.90;99945.25;10110213;29;20053;-95
2023/09/30 14:46:06;;;;;;;3.35;1.55;;;;;;;15.20;89.55;99942.84;10103628;29;20058;-94
2023/09/30 14:51:44;;;;;;;3.70;2.05;;;;;;;15.09;89.59;99945.16;10109599;29;20046;-95
2023/09/30 14:57:27;;;;;;;4.05;1.52;;;;;;;14.96;90.04;99937.88;10132280;29;20033;-95
2023/09/30 15:02:31;;;;;;;3.42;1.60;;;;;;;14.96;90.82;99948.13;10139218;29;20057;-96
2023/09/30 15:07:47;;;;;;;3.42;1.40;;;;;;;14.98;90.20;99945.84;10104808;29;20144;-95
2023/09/30 15:12:59;;;;;;;3.72;1.30;;;;;;;14.76;89.88;99941.31;10087577;29;20034;-96
2023/09/30 15:18:41;;;;;;;4.22;1.30;;;;;;;14.56;88.69;99940.00;10110247;29;20080;-95
2023/09/30 15:31:16;;;;;;;3.83;1.48;;;;;;;14.37;87.01;99954.09;10098167;29;20081;-95
2023/09/30 15:36:55;;;;;;;2.83;1.10;;;;;;;14.23;87.55;99953.44;10080345;29;20053;-96
2023/09/30 15:42:28;;;;;;;5.20;1.42;;;;;;;14.15;86.28;99946.75;10037242;29;20049;-93
2023/09/30 15:48:16;;;;;;;2.85;1.75;;;;;;;14.11;86.20;99951.31;10092214;29;20067;-92
2023/09/30 15:53:47;;;;;;;4.65;1.27;;;;;;;14.11;85.30;99943.03;10075602;29;20049;-92
2023/09/30 15:59:08;;;;;;;4.43;1.38;;;;;;;14.09;85.25;99958.28;10080241;29;20058;-95
2023/09/30 16:04:27;;;;;;;4.40;1.23;;;;;;;14.10;84.59;99955.19;10048296;29;20106;-95
2023/09/30 16:10:01;;;;;;;3.50;1.40;;;;;;;14.08;84.99;99948.38;10044980;29;20093;-95
2023/09/30 16:15:11;;;;;;;4.43;1.45;;;;;;;14.00;84.98;99961.00;9999013;29;20042;-96
2023/09/30 16:20:32;;;;;;;6.65;1.52;;;;;;;13.96;84.74;99962.78;10051670;29;20097;-96
2023/09/30 16:25:51;;;;;;;6.13;1.48;;;;;;;13.87;85.81;99962.75;10073031;29;20053;-95
2023/09/30 16:31:22;;;;;;;4.75;1.60;;;;;;;13.80;85.33;99956.88;10083447;29;20073;-95
2023/09/30 16:36:41;;;;;;;3.58;1.50;;;;;;;13.76;83.75;99963.38;10039198;29;20141;-93
2023/09/30 16:41:44;;;;;;;4.15;1.55;;;;;;;13.74;83.33;99960.13;10019698;29;20038;-96
2023/09/30 16:46:46;;;;;;;5.07;2.10;;;;;;;13.75;83.81;99959.78;10071192;29;20053;-94
2023/09/30 16:51:49;;;;;;;7.47;1.92;;;;;;;13.67;84.16;99951.47;10028322;29;20053;-94
2023/09/30 16:56:51;;;;;;;6.85;2.20;;;;;;;13.74;84.23;99958.19;10023243;29;20050;-93
2023/09/30 17:01:54;;;;;;;5.70;1.85;;;;;;;13.63;84.49;99956.81;10014708;29;20068;-94
2023/09/30 17:06:56;;;;;;;6.00;1.63;;;;;;;13.55;85.86;99952.09;10043822;29;20136;-92
2023/09/30 17:11:59;;;;;;;5.28;1.83;;;;;;;13.61;84.80;99952.75;10029729;29;21727;-85
2023/09/30 17:17:02;;;;;;;4.80;1.80;;;;;;;13.58;84.91;99952.28;10044703;29;20073;-88
2023/09/30 17:22:05;;;;;;;6.78;2.50;;;;;;;13.69;83.79;99951.97;10073225;29;20052;-90
2023/09/30 17:27:09;;;;;;;5.25;2.15;;;;;;;13.62;83.74;99948.88;10064752;29;20418;-87
2023/09/30 17:32:13;;;;;;;3.75;1.50;;;;;;;13.51;83.89;99949.13;10070892;29;20057;-90
2023/09/30 17:37:17;;;;;;;5.45;1.65;;;;;;;13.47;83.80;99939.88;10087204;29;20041;-88
2023/09/30 17:42:19;;;;;;;7.03;1.95;;;;;;;13.53;83.92;99941.34;10087770;29;20041;-89
2023/09/30 17:47:22;;;;;;;7.68;2.22;;;;;;;13.56;84.36;99940.75;10086272;29;20052;-87
2023/09/30 17:52:24;;;;;;;6.30;2.10;;;;;;;13.65;84.13;99943.53;10055246;29;20050;-85
2023/09/30 17:57:27;;;;;;;4.75;1.85;;;;;;;13.66;84.63;99938.81;10086401;29;20053;-86
2023/09/30 18:02:29;;;;;;;6.65;2.08;;;;;;;13.56;85.79;99938.00;10069413;29;20429;-86
2023/09/30 18:07:31;;;;;;;3.30;1.50;;;;;;;13.52;86.01;99927.91;10085885;29;20045;-85
2023/09/30 18:12:34;;;;;;;4.25;1.90;;;;;;;13.44;86.41;99924.00;10069201;29;20053;-89
2023/09/30 18:17:36;;;;;;;5.57;2.00;;;;;;;13.48;86.50;99922.22;10086796;29;20050;-88
2023/09/30 18:22:39;;;;;;;4.53;1.83;;;;;;;13.53;85.83;99930.34;10085846;29;20049;-87
2023/09/30 18:27:41;;;;;;;3.53;1.52;;;;;;;13.48;85.52;99913.94;10068829;29;20049;-84
2023/09/30 18:32:45;;;;;;;8.00;2.40;;;;;;;13.39;84.76;99918.63;10069076;29;20683;-85
2023/09/30 18:37:47;;;;;;;3.63;1.45;;;;;;;13.40;84.82;99924.94;10085661;29;20037;-83
2023/09/30 18:42:49;;;;;;;5.25;1.42;;;;;;;13.40;84.33;99917.50;10085348;29;20053;-86
2023/09/30 18:47:53;;;;;;;4.75;1.42;;;;;;;13.41;83.26;99921.88;10085400;29;20045;-87
2023/09/30 18:52:56;;;;;;;3.13;1.25;;;;;;;13.48;82.62;99916.69;10086065;29;20370;-87
2023/09/30 18:57:59;;;;;;;4.60;1.60;;;;;;;13.47;82.45;99906.00;10069295;29;20510;-83
2023/09/30 19:03:02;;;;;;;3.90;1.60;;;;;;;13.44;82.32;99912.16;10092143;29;20049;-87
2023/09/30 19:08:06;;;;;;;4.78;1.40;;;;;;;13.46;81.93;99901.63;10075965;29;20041;-90
2023/09/30 19:13:09;;;;;;;2.67;1.20;;;;;;;13.41;81.47;99912.78;10046638;29;20053;-88
2023/09/30 19:18:11;;;;;;;2.42;1.17;;;;;;;13.40;81.37;99911.97;10103899;29;20048;-91
2023/09/30 19:23:14;;;;;;;4.93;1.50;;;;;;;13.28;80.81;99900.72;10061151;29;20050;-90
2023/09/30 19:28:16;;;;;;;5.40;1.55;;;;;;;13.25;81.91;99893.09;10021940;29;20050;-85
2023/09/30 19:33:19;;;;;;;7.07;1.38;;;;;;;13.24;81.58;99897.00;10040453;29;20049;-86
2023/09/30 19:38:21;;;;;;;3.03;1.45;;;;;;;13.22;81.47;99897.31;10090711;29;20052;-86
2023/09/30 19:43:23;;;;;;;6.30;1.20;;;;;;;13.15;82.39;99885.88;10074280;29;20046;-84
2023/09/30 19:48:26;;;;;;;5.32;1.45;;;;;;;13.05;82.93;99885.38;10059105;29;20046;-85
2023/09/30 19:53:29;;;;;;;4.75;1.55;;;;;;;12.99;82.57;99890.97;10081093;29;20053;-88
2023/09/30 19:58:31;;;;;;;8.32;1.58;;;;;;;12.93;82.88;99888.69;10090543;29;20180;-88
2023/09/30 20:03:35;;;;;;;2.70;1.15;;;;;;;12.80;83.00;99879.38;10056135;29;20053;-89
2023/09/30 20:08:37;;;;;;;5.32;1.20;;;;;;;12.88;82.17;99881.38;10051343;29;20050;-88
2023/09/30 20:13:40;;;;;;;2.95;1.10;;;;;;;12.91;81.41;99882.69;10006189;29;20049;-89
2023/09/30 20:18:42;;;;;;;2.15;0.98;;;;;;;12.81;82.32;99877.44;10047628;29;20053;-88
2023/09/30 20:23:44;;;;;;;6.22;1.73;;;;;;;12.68;82.09;99877.22;10020401;29;20069;-89
2023/09/30 20:28:48;;;;;;;4.75;1.48;;;;;;;12.59;82.58;99872.75;9998167;29;20054;-88
2023/09/30 20:33:51;;;;;;;3.47;1.13;;;;;;;12.60;82.21;99874.38;9970720;29;20050;-85
2023/09/30 20:38:53;;;;;;;2.10;1.00;;;;;;;12.54;82.06;99875.66;10014831;29;20046;-85
2023/09/30 20:43:56;;;;;;;2.70;0.80;;;;;;;12.49;82.18;99868.31;10006400;29;20057;-85
2023/09/30 20:48:58;;;;;;;3.20;1.02;;;;;;;12.44;82.59;99864.88;10050509;29;20053;-87
2023/09/30 20:54:00;;;;;;;4.60;1.10;;;;;;;12.47;81.70;99867.00;10066565;29;20058;-86
2023/09/30 20:59:05;;;;;;;4.57;1.52;;;;;;;12.40;82.27;99869.38;10074519;29;20057;-85
2023/09/30 21:04:07;;;;;;;4.97;1.30;;;;;;;12.43;81.65;99868.75;10077940;29;20058;-85
2023/09/30 21:09:14;;;;;;;2.15;0.85;;;;;;;12.45;81.65;99861.00;9994372;29;20046;-87
2023/09/30 21:14:16;;;;;;;3.17;1.02;;;;;;;12.34;82.47;99858.50;9981828;29;20046;-84
2023/09/30 21:19:18;;;;;;;3.85;1.40;;;;;;;12.26;82.62;99875.75;10032101;29;20113;-86
2023/09/30 21:24:20;;;;;;;2.95;0.80;;;;;;;12.23;83.04;99854.38;10032836;29;20418;-85
2023/09/30 21:29:22;;;;;;;4.20;1.17;;;;;;;12.18;83.70;99861.94;10032783;29;20042;-87
2023/09/30 21:34:25;;;;;;;5.57;1.23;;;;;;;12.12;83.80;99852.97;10033001;29;20517;-84
2023/09/30 21:39:27;;;;;;;4.15;1.00;;;;;;;12.10;84.51;99848.91;10034220;29;20064;-84
2023/09/30 21:44:30;;;;;;;2.00;1.00;;;;;;;12.08;85.00;99840.97;10048741;29;20049;-83
2023/09/30 21:49:32;;;;;;;1.67;1.02;;;;;;;12.11;84.58;99840.34;10032762;29;20041;-84
2023/09/30 21:54:34;;;;;;;2.67;0.70;;;;;;;12.17;84.19;99846.56;10048625;29;20042;-82
2023/09/30 21:59:36;;;;;;;1.90;0.75;;;;;;;12.18;84.68;99842.69;10051607;29;20069;-83
2023/09/30 22:04:39;;;;;;;5.82;1.58;;;;;;;12.12;84.69;99847.47;10074150;29;20041;-88
2023/09/30 22:09:41;;;;;;;6.55;1.42;;;;;;;12.18;84.47;99837.19;10056874;29;20049;-85
2023/09/30 22:14:43;;;;;;;2.63;1.00;;;;;;;12.18;84.70;99835.25;10071351;29;20407;-88
2023/09/30 22:19:46;;;;;;;6.25;1.25;;;;;;;12.15;85.53;99822.13;10040159;29;20453;-87
2023/09/30 22:24:48;;;;;;;4.28;1.00;;;;;;;12.12;84.92;99825.47;10054488;29;20545;-88
2023/09/30 22:29:52;;;;;;;1.90;0.77;;;;;;;12.10;85.05;99824.97;10086237;29;20042;-86
2023/09/30 22:34:54;;;;;;;1.98;0.90;;;;;;;12.05;85.30;99819.59;10073331;29;20536;-86
2023/09/30 22:39:57;;;;;;;1.27;0.60;;;;;;;12.04;85.59;99818.78;10097409;29;20059;-86
2023/09/30 22:44:59;;;;;;;1.60;0.77;;;;;;;11.96;86.59;99822.25;10086091;29;20052;-87
2023/09/30 22:50:02;;;;;;;3.47;1.10;;;;;;;11.87;87.23;99826.88;10059240;29;20050;-85
2023/09/30 22:55:10;;;;;;;3.90;1.17;;;;;;;11.84;87.36;99821.19;10083028;29;20046;-85
2023/09/30 23:00:15;;;;;;;3.30;1.08;;;;;;;11.81;87.73;99819.06;10060520;29;20061;-85
2023/09/30 23:05:17;;;;;;;2.47;1.10;;;;;;;11.74;88.52;99819.44;10079585;29;20049;-85
2023/09/30 23:10:20;;;;;;;5.07;1.27;;;;;;;11.64;88.95;99823.25;10071057;29;20514;-84
2023/09/30 23:15:25;;;;;;;2.83;1.08;;;;;;;11.66;89.47;99812.75;10059017;29;20045;-86
2023/09/30 23:20:29;;;;;;;2.55;0.90;;;;;;;11.66;89.44;99807.25;10064586;29;20060;-86
2023/09/30 23:25:34;;;;;;;1.58;0.60;;;;;;;11.72;88.87;99797.78;10066765;29;20069;-85
2023/09/30 23:30:38;;;;;;;5.25;1.00;;;;;;;11.68;89.15;99794.03;10087251;29;20072;-86
2023/09/30 23:35:40;;;;;;;2.50;1.00;;;;;;;11.63;88.99;99793.31;10070474;29;20068;-85
2023/09/30 23:40:43;;;;;;;3.75;1.00;;;;;;;11.63;90.15;99774.91;10051494;29;20050;-86
2023/09/30 23:45:47;;;;;;;6.25;1.20;;;;;;;11.53;90.43;99774.31;10046166;29;20057;-86
2023/09/30 23:50:50;;;;;;;5.55;0.88;;;;;;;11.48;91.14;99778.81;10072554;29;20048;-85